Time,TemperatureF,DewpointF,PressureIn,WindDirection,WindDirectionDegrees,WindSpeedMPH,WindSpeedGustMPH,Humidity,HourlyPrecipIn,Conditions,Clouds,dailyrainin,SoftwareType,DateUTC
2013-09-11 00:00:00,66.0,-99.9,-100.00,ESE,114,3.0,5.0,-999,-99.99,,,-99.99,,2013-09-11 06:00:00,
2013-09-11 00:52:00,66.0,-99.9,-100.00,ESE,114,3.0,5.0,-999,-99.99,,,-99.99,,2013-09-11 06:52:00,
2013-09-11 01:00:00,66.0,-99.9,-100.00,ESE,102,5.0,6.0,-999,-99.99,,,-99.99,,2013-09-11 07:00:00,
2013-09-11 01:53:00,66.0,-99.9,-100.00,ESE,102,5.0,6.0,-999,-99.99,,,-99.99,,2013-09-11 07:53:00,
2013-09-11 02:00:00,66.0,-99.9,-100.00,ENE,69,9.0,10.0,-999,-99.99,,,-99.99,,2013-09-11 08:00:00,
2013-09-11 02:52:00,66.0,-99.9,-100.00,ENE,69,9.0,10.0,-999,-99.99,,,-99.99,,2013-09-11 08:52:00,
2013-09-11 03:00:00,66.0,-99.9,-100.00,East,101,2.0,6.0,-999,-99.99,,,-99.99,,2013-09-11 09:00:00,
2013-09-11 03:53:00,66.0,-99.9,-100.00,East,101,2.0,6.0,-999,-99.99,,,-99.99,,2013-09-11 09:53:00,
2013-09-11 04:00:00,64.0,-99.9,-100.00,ENE,76,5.0,5.0,-999,-99.99,,,-99.99,,2013-09-11 10:00:00,
2013-09-11 04:53:00,64.0,-99.9,-100.00,ENE,76,5.0,5.0,-999,-99.99,,,-99.99,,2013-09-11 10:53:00,
2013-09-11 05:00:00,64.0,-99.9,-100.00,East,93,3.0,12.0,-999,-99.99,,,-99.99,,2013-09-11 11:00:00,
2013-09-11 05:52:00,64.0,-99.9,-100.00,East,93,3.0,12.0,-999,-99.99,,,-99.99,,2013-09-11 11:52:00,
2013-09-11 06:00:00,64.0,-99.9,-100.00,ENE,73,4.0,4.0,-999,-99.99,,,-99.99,,2013-09-11 12:00:00,
2013-09-11 06:42:00,64.0,-99.9,-100.00,ENE,73,4.0,4.0,-999,-99.99,,,-99.99,,2013-09-11 12:42:00,
2013-09-11 06:52:00,64.0,-99.9,-100.00,ENE,73,4.0,4.0,-999,-99.99,,,-99.99,,2013-09-11 12:52:00,
2013-09-11 07:00:00,64.0,-99.9,-100.00,East,98,5.0,6.0,-999,-99.99,,,-99.99,,2013-09-11 13:00:00,
2013-09-11 07:53:00,64.0,-99.9,-100.00,East,98,5.0,6.0,-999,-99.99,,,-99.99,,2013-09-11 13:53:00,
2013-09-11 08:00:00,68.0,-99.9,-100.00,ESE,114,14.0,15.0,-999,-99.99,,,-99.99,,2013-09-11 14:00:00,
2013-09-11 08:52:00,68.0,-99.9,-100.00,ESE,114,14.0,15.0,-999,-99.99,,,-99.99,,2013-09-11 14:52:00,
2013-09-11 09:00:00,69.0,-99.9,-100.00,East,93,13.0,17.0,-999,-99.99,,,-99.99,,2013-09-11 15:00:00,
2013-09-11 09:54:00,69.0,-99.9,-100.00,East,93,13.0,17.0,-999,-99.99,,,-99.99,,2013-09-11 15:54:00,
2013-09-11 10:00:00,68.0,-99.9,-100.00,East,99,9.0,12.0,-999,-99.99,,,-99.99,,2013-09-11 16:00:00,
2013-09-11 10:53:00,68.0,-99.9,-100.00,East,99,9.0,12.0,-999,-99.99,,,-99.99,,2013-09-11 16:53:00,
2013-09-11 11:00:00,69.0,-99.9,-100.00,SE,143,5.0,9.0,-999,-99.99,,,-99.99,,2013-09-11 17:00:00,
2013-09-11 11:52:00,69.0,-99.9,-100.00,SE,143,5.0,9.0,-999,-99.99,,,-99.99,,2013-09-11 17:52:00,
2013-09-11 12:00:00,71.0,-99.9,-100.00,ESE,118,15.0,15.0,-999,-99.99,,,-99.99,,2013-09-11 18:00:00,
2013-09-11 12:52:00,71.0,-99.9,-100.00,ESE,118,15.0,15.0,-999,-99.99,,,-99.99,,2013-09-11 18:52:00,
2013-09-11 13:00:00,73.0,-99.9,-100.00,East,79,16.0,18.0,-999,-99.99,,,-99.99,,2013-09-11 19:00:00,
2013-09-11 13:53:00,73.0,-99.9,-100.00,East,79,16.0,18.0,-999,-99.99,,,-99.99,,2013-09-11 19:53:00,
2013-09-11 14:00:00,73.0,-99.9,-100.00,ESE,102,15.0,16.0,-999,-99.99,,,-99.99,,2013-09-11 20:00:00,
2013-09-11 14:52:00,73.0,-99.9,-100.00,ESE,102,15.0,16.0,-999,-99.99,,,-99.99,,2013-09-11 20:52:00,
2013-09-11 15:00:00,71.0,-99.9,-100.00,ENE,62,6.0,13.0,-999,-99.99,,,-99.99,,2013-09-11 21:00:00,
2013-09-11 15:55:00,71.0,-99.9,-100.00,ENE,62,6.0,13.0,-999,-99.99,,,-99.99,,2013-09-11 21:55:00,
2013-09-11 16:00:00,73.0,-99.9,-100.00,SE,128,7.0,12.0,-999,-99.99,,,-99.99,,2013-09-11 22:00:00,
2013-09-11 16:54:00,73.0,-99.9,-100.00,SE,128,7.0,12.0,-999,-99.99,,,-99.99,,2013-09-11 22:54:00,
2013-09-11 17:00:00,71.0,-99.9,-100.00,SE,144,9.0,11.0,-999,-99.99,,,-99.99,,2013-09-11 23:00:00,
2013-09-11 17:54:00,71.0,-99.9,-100.00,SE,144,9.0,11.0,-999,-99.99,,,-99.99,,2013-09-11 23:54:00,
2013-09-11 18:00:00,71.0,-99.9,-100.00,ESE,105,5.0,7.0,-999,-99.99,,,-99.99,,2013-09-12 00:00:00,
2013-09-11 18:52:00,71.0,-99.9,-100.00,ESE,105,5.0,7.0,-999,-99.99,,,-99.99,,2013-09-12 00:52:00,
2013-09-11 19:00:00,69.0,-99.9,-100.00,East,101,4.0,6.0,-999,-99.99,,,-99.99,,2013-09-12 01:00:00,
2013-09-11 19:52:00,69.0,-99.9,-100.00,East,101,4.0,6.0,-999,-99.99,,,-99.99,,2013-09-12 01:52:00,
2013-09-11 21:00:00,68.0,-99.9,-100.00,East,101,6.0,8.0,-999,-99.99,,,-99.99,,2013-09-12 03:00:00,
2013-09-11 21:55:00,68.0,-99.9,-100.00,East,101,6.0,8.0,-999,-99.99,,,-99.99,,2013-09-12 03:55:00,
2013-09-11 22:00:00,68.0,-99.9,-100.00,ENE,71,9.0,10.0,-999,-99.99,,,-99.99,,2013-09-12 04:00:00,
2013-09-11 22:54:00,68.0,-99.9,-100.00,ENE,71,9.0,10.0,-999,-99.99,,,-99.99,,2013-09-12 04:54:00,
2013-09-11 23:00:00,68.0,-99.9,-100.00,East,99,7.0,14.0,-999,-99.99,,,-99.99,,2013-09-12 05:00:00,
2013-09-11 23:53:00,68.0,-99.9,-100.00,East,99,7.0,14.0,-999,-99.99,,,-99.99,,2013-09-12 05:53:00,